Time;durP1;ratioP1;P1;durP2;ratioP2;P2;SDS_P1;SDS_P2;PMS_P1;PMS_P2;Temp;Humidity;BMP_temperature;BMP_pressure;BME280_temperature;BME280_humidity;BME280_pressure;Samples;Min_cycle;Max_cycle;Signal;HPM_P1;HPM_P2
2023/10/18 00:01:02;;;;;;;14.60;9.43;;;3.10;99.90;;;2.76;100.00;101316.66;5082453;28;20274;-66
2023/10/18 00:03:36;;;;;;;11.25;10.00;;;3.10;99.90;;;2.81;100.00;101309.88;5089964;28;20332;-66
2023/10/18 00:06:15;;;;;;;16.05;9.50;;;3.10;99.90;;;2.82;100.00;101300.88;5080609;28;20755;-69
2023/10/18 00:08:45;;;;;;;10.50;9.43;;;3.10;99.90;;;2.72;100.00;101299.19;5085744;28;20202;-68
2023/10/18 00:11:15;;;;;;;9.50;7.10;;;3.10;99.90;;;2.79;100.00;101297.66;5087381;28;20192;-68
2023/10/18 00:13:45;;;;;;;10.38;7.90;;;3.10;99.90;;;2.66;100.00;101300.63;5087536;28;20225;-67
2023/10/18 00:16:13;;;;;;;12.00;8.43;;;3.10;99.90;;;2.76;100.00;101301.44;5071040;28;20684;-67
2023/10/18 00:18:44;;;;;;;13.50;9.82;;;3.10;99.90;;;2.86;100.00;101296.91;5088320;28;20199;-68
2023/10/18 00:21:13;;;;;;;13.57;7.65;;;3.10;99.90;;;3.01;100.00;101292.81;5088386;28;20191;-67
2023/10/18 00:23:44;;;;;;;13.45;11.40;;;3.20;99.90;;;3.03;100.00;101293.53;5086655;28;20215;-67
2023/10/18 00:26:12;;;;;;;12.98;8.43;;;3.30;99.90;;;2.81;100.00;101304.53;5084958;28;20253;-67
2023/10/18 00:28:44;;;;;;;9.73;8.70;;;3.20;99.90;;;2.81;100.00;101303.72;5085951;28;20200;-68
2023/10/18 00:31:14;;;;;;;10.80;6.47;;;3.10;99.90;;;2.74;100.00;101297.22;5071708;28;20765;-68
2023/10/18 00:33:45;;;;;;;13.25;10.10;;;3.10;99.90;;;2.69;100.00;101303.00;5081100;28;20222;-67
2023/10/18 00:36:16;;;;;;;13.30;10.30;;;3.10;99.90;;;2.89;100.00;101299.34;5082373;28;20188;-68
2023/10/18 00:38:45;;;;;;;14.30;12.95;;;3.10;99.90;;;2.72;100.00;101300.03;5088794;28;20244;-68
2023/10/18 00:41:16;;;;;;;14.82;7.22;;;3.10;99.90;;;2.57;100.00;101306.78;5058753;28;20673;-68
2023/10/18 00:43:45;;;;;;;13.45;8.60;;;3.00;99.90;;;2.51;100.00;101300.19;5083493;28;20268;-69
2023/10/18 00:46:15;;;;;;;7.78;6.95;;;2.90;99.90;;;2.75;100.00;101289.06;5082687;28;20203;-68
2023/10/18 00:48:46;;;;;;;10.45;9.40;;;3.00;99.90;;;2.73;100.00;101291.03;5064236;28;20204;-68
2023/10/18 00:51:17;;;;;;;10.85;8.43;;;3.10;99.90;;;2.61;100.00;101292.19;5072843;28;20195;-68
2023/10/18 00:53:48;;;;;;;11.55;8.15;;;3.00;99.90;;;2.57;100.00;101285.41;5092821;28;20198;-67
2023/10/18 00:56:16;;;;;;;26.70;10.23;;;2.90;99.90;;;2.53;100.00;101284.84;5070738;28;20287;-68
2023/10/18 00:58:47;;;;;;;16.75;8.93;;;2.90;99.90;;;2.48;100.00;101291.59;5093378;28;20187;-68
2023/10/18 01:01:17;;;;;;;12.70;8.50;;;2.80;99.90;;;2.37;100.00;101289.09;5089837;28;20198;-67
2023/10/18 01:03:49;;;;;;;19.98;9.10;;;2.80;99.90;;;2.34;100.00;101289.34;5085824;28;20216;-67
2023/10/18 01:06:24;;;;;;;8.65;7.97;;;2.80;99.90;;;2.43;100.00;101288.50;5082421;28;20623;-67
2023/10/18 01:08:55;;;;;;;14.98;9.15;;;2.70;99.90;;;2.41;100.00;101280.66;5076210;28;20202;-67
2023/10/18 01:11:27;;;;;;;11.00;10.10;;;2.70;99.90;;;2.41;100.00;101291.34;5074407;28;20187;-68
2023/10/18 01:13:59;;;;;;;13.13;8.57;;;2.70;99.90;;;2.52;100.00;101285.00;5086267;28;20203;-66
2023/10/18 01:16:30;;;;;;;16.88;11.32;;;2.70;99.90;;;2.55;100.00;101293.59;5086160;28;20210;-67
2023/10/18 01:19:01;;;;;;;10.40;9.30;;;2.80;99.90;;;2.42;100.00;101284.16;5080946;28;20195;-65
2023/10/18 01:21:32;;;;;;;12.68;9.50;;;2.70;99.90;;;2.38;100.00;101288.06;5092117;28;20241;-68
2023/10/18 01:24:01;;;;;;;15.63;13.10;;;2.70;99.90;;;2.30;100.00;101288.78;5084866;28;20270;-67
2023/10/18 01:26:36;;;;;;;11.52;10.32;;;2.60;99.90;;;2.28;100.00;101284.56;5093633;28;20208;-69
2023/10/18 01:29:08;;;;;;;9.15;8.25;;;2.60;99.90;;;2.23;100.00;101282.31;5086196;28;20179;-67
2023/10/18 01:31:43;;;;;;;11.57;10.38;;;2.50;99.90;;;2.13;100.00;101279.63;5091256;28;20198;-67
2023/10/18 01:34:12;;;;;;;15.10;8.80;;;2.50;99.90;;;2.15;100.00;101275.00;5065188;28;20681;-67
2023/10/18 01:36:41;;;;;;;14.10;8.73;;;2.40;99.90;;;2.13;100.00;101276.13;5077213;28;20282;-67
2023/10/18 01:39:18;;;;;;;7.90;7.25;;;2.40;99.90;;;2.00;100.00;101271.03;5077030;28;20192;-70
2023/10/18 01:41:53;;;;;;;12.32;9.32;;;2.40;99.90;;;2.02;100.00;101271.75;5093737;28;20242;-70
2023/10/18 01:44:30;;;;;;;10.27;6.47;;;2.40;99.90;;;1.99;100.00;101276.50;5071553;28;20289;-66
2023/10/18 01:47:06;;;;;;;14.35;7.85;;;2.30;99.90;;;2.03;100.00;101269.94;5078533;28;20202;-68
2023/10/18 01:49:43;;;;;;;10.77;9.80;;;2.30;99.90;;;1.99;100.00;101264.00;5084816;28;20261;-68
2023/10/18 01:52:17;;;;;;;12.20;8.88;;;2.20;99.90;;;1.88;100.00;101264.16;5095113;28;20302;-67
2023/10/18 01:54:47;;;;;;;10.98;7.70;;;2.20;99.90;;;1.81;100.00;101263.00;5096304;28;20309;-69
2023/10/18 01:57:18;;;;;;;11.25;8.27;;;2.10;99.90;;;1.79;100.00;101253.44;5075834;28;20199;-69
2023/10/18 01:59:48;;;;;;;11.82;8.32;;;2.10;99.90;;;1.81;100.00;101254.97;5080753;28;20282;-68
2023/10/18 02:02:17;;;;;;;11.07;9.65;;;2.10;99.90;;;1.72;100.00;101250.47;5071906;28;20223;-65
2023/10/18 02:04:45;;;;;;;15.73;8.48;;;2.00;99.90;;;1.73;100.00;101249.50;5099053;28;20199;-69
2023/10/18 02:07:22;;;;;;;8.50;7.80;;;2.00;99.90;;;1.71;100.00;101249.63;5077522;28;20275;-68
2023/10/18 02:09:52;;;;;;;7.60;6.90;;;2.00;99.90;;;1.78;100.00;101244.59;5072351;28;20190;-69
2023/10/18 02:12:23;;;;;;;11.38;8.45;;;2.00;99.90;;;1.77;100.00;101242.91;5094478;28;21262;-66
2023/10/18 02:14:54;;;;;;;8.07;6.75;;;2.00;99.90;;;1.77;100.00;101242.91;5074814;28;20199;-69
2023/10/18 02:17:23;;;;;;;11.07;6.85;;;2.00;99.90;;;1.80;100.00;101236.44;5091350;28;20195;-70
2023/10/18 02:19:52;;;;;;;12.07;8.25;;;2.00;99.90;;;1.75;100.00;101236.84;5087191;28;20195;-68
2023/10/18 02:22:21;;;;;;;23.23;8.50;;;2.00;99.90;;;1.69;100.00;101234.75;5072567;28;20594;-68
2023/10/18 02:24:50;;;;;;;8.45;7.85;;;2.00;99.90;;;1.62;100.00;101233.59;5085286;28;20237;-68
2023/10/18 02:27:23;;;;;;;12.45;8.63;;;2.00;99.90;;;1.66;100.00;101229.66;5073095;28;20707;-68
2023/10/18 02:29:53;;;;;;;9.50;6.80;;;1.90;99.90;;;1.62;100.00;101228.25;5088486;28;20544;-66
2023/10/18 02:32:32;;;;;;;9.90;6.13;;;2.00;99.90;;;1.70;100.00;101226.59;5089781;28;20230;-67
2023/10/18 02:35:05;;;;;;;10.65;7.80;;;2.00;99.90;;;1.68;100.00;101230.38;5090960;28;20183;-69
2023/10/18 02:37:33;;;;;;;10.07;8.65;;;2.00;99.90;;;1.83;100.00;101225.50;5083673;28;20188;-68
2023/10/18 02:40:08;;;;;;;8.70;6.97;;;2.00;99.90;;;1.85;100.00;101229.69;5087604;28;20187;-68
2023/10/18 02:42:38;;;;;;;10.90;7.50;;;2.10;99.90;;;1.88;100.00;101226.78;5084821;28;20598;-67
2023/10/18 02:45:13;;;;;;;8.10;7.28;;;2.10;99.90;;;1.77;100.00;101232.22;5090934;28;20195;-68
2023/10/18 02:47:42;;;;;;;8.45;7.28;;;2.10;99.90;;;1.79;100.00;101224.09;5092567;28;20206;-69
2023/10/18 02:50:14;;;;;;;9.13;8.05;;;2.10;99.90;;;1.67;100.00;101234.03;5080029;28;20278;-68
2023/10/18 02:52:48;;;;;;;9.48;6.20;;;2.00;99.90;;;1.65;100.00;101230.63;5087643;28;20206;-67
2023/10/18 02:55:18;;;;;;;16.48;7.97;;;2.00;99.90;;;1.65;100.00;101233.31;5075304;28;20199;-68
2023/10/18 02:57:47;;;;;;;12.93;7.10;;;2.00;99.90;;;1.64;100.00;101234.31;5083875;28;20271;-67
2023/10/18 03:00:20;;;;;;;6.78;5.53;;;1.90;99.90;;;1.66;100.00;101240.34;5073892;28;20635;-68
2023/10/18 03:02:50;;;;;;;9.60;5.53;;;1.90;99.90;;;1.60;100.00;101228.38;5085652;28;20322;-70
2023/10/18 03:05:20;;;;;;;8.27;6.85;;;1.90;99.90;;;1.58;100.00;101237.50;5090510;28;20214;-68
2023/10/18 03:07:49;;;;;;;12.25;6.95;;;1.90;99.90;;;1.56;100.00;101231.47;5085934;28;20275;-67
2023/10/18 03:10:27;;;;;;;6.78;6.18;;;1.80;99.90;;;1.55;100.00;101233.28;5063044;28;20215;-67
2023/10/18 03:12:58;;;;;;;5.38;4.97;;;1.80;99.90;;;1.63;100.00;101227.28;5086245;28;20260;-69
2023/10/18 03:15:29;;;;;;;6.90;4.75;;;1.80;99.90;;;1.55;100.00;101221.78;5086615;28;20282;-67
2023/10/18 03:18:00;;;;;;;9.10;6.90;;;1.80;99.90;;;1.48;100.00;101223.31;5071334;28;20680;-67
2023/10/18 03:20:29;;;;;;;9.13;6.72;;;1.80;99.90;;;1.43;100.00;101218.38;5085195;28;20750;-67
2023/10/18 03:23:02;;;;;;;9.60;7.75;;;1.70;99.90;;;1.34;100.00;101213.00;5069095;28;20568;-67
2023/10/18 03:25:31;;;;;;;6.72;5.50;;;1.70;99.90;;;1.35;100.00;101212.88;5086684;28;20184;-68
2023/10/18 03:28:05;;;;;;;8.45;6.70;;;1.70;99.90;;;1.37;100.00;101207.41;5081970;28;20232;-69
2023/10/18 03:30:45;;;;;;;10.43;7.78;;;1.60;99.90;;;1.36;100.00;101205.69;5086583;28;20198;-68
2023/10/18 03:33:15;;;;;;;10.07;7.07;;;1.70;99.90;;;1.35;100.00;101204.03;5088438;28;20220;-68
2023/10/18 03:36:06;;;;;;;11.65;6.15;;;1.60;99.90;;;1.44;100.00;101203.22;5088904;28;20179;-68
2023/10/18 03:38:53;;;;;;;7.30;6.60;;;1.70;99.90;;;1.44;100.00;101201.41;5083820;28;20205;-67
2023/10/18 03:41:25;;;;;;;12.23;5.55;;;1.70;99.90;;;1.43;100.00;101205.03;5085874;28;20187;-68
2023/10/18 03:44:03;;;;;;;8.73;7.13;;;1.70;99.90;;;1.47;100.00;101200.28;5073562;28;20183;-67
2023/10/18 03:46:46;;;;;;;6.78;4.90;;;1.70;99.90;;;1.51;100.00;101205.19;5087408;28;20208;-68
2023/10/18 03:49:22;;;;;;;5.93;5.53;;;1.80;99.90;;;1.51;100.00;101209.69;5090167;28;20203;-68
2023/10/18 03:51:54;;;;;;;9.35;6.50;;;1.80;99.90;;;1.53;100.00;101203.25;5085296;28;20203;-68
2023/10/18 03:54:26;;;;;;;6.72;4.82;;;1.80;99.90;;;1.54;100.00;101204.09;5083924;28;20275;-68
2023/10/18 03:56:55;;;;;;;7.53;5.55;;;1.80;99.90;;;1.57;100.00;101188.66;5070944;28;20204;-68
2023/10/18 03:59:25;;;;;;;6.90;5.97;;;1.80;99.90;;;1.64;100.00;101184.47;5072335;28;20705;-66
2023/10/18 04:02:06;;;;;;;7.45;6.68;;;1.80;99.90;;;1.55;100.00;101184.47;5086186;28;20215;-66
2023/10/18 04:04:36;;;;;;;5.93;5.25;;;1.80;99.90;;;1.52;100.00;101179.38;5082642;28;20284;-68
2023/10/18 04:07:13;;;;;;;8.23;6.03;;;1.80;99.90;;;1.57;100.00;101177.97;5076839;28;20892;-66
2023/10/18 04:09:47;;;;;;;7.18;4.55;;;1.80;99.90;;;1.53;100.00;101173.91;5091541;28;20187;-68
2023/10/18 04:12:18;;;;;;;7.18;5.82;;;1.80;99.90;;;1.36;100.00;101184.38;5091998;28;20219;-68
2023/10/18 04:14:52;;;;;;;18.30;5.13;;;1.80;99.90;;;1.23;100.00;101174.81;5088114;28;20187;-68
2023/10/18 04:17:36;;;;;;;5.53;4.85;;;1.70;99.90;;;1.17;100.00;101175.34;5087402;28;20190;-68
2023/10/18 04:20:22;;;;;;;9.32;7.53;;;1.60;99.90;;;1.17;100.00;101175.34;5088913;28;20227;-66
2023/10/18 04:22:51;;;;;;;7.85;6.38;;;1.60;99.90;;;1.38;100.00;101167.28;5085096;28;20210;-68
2023/10/18 04:25:26;;;;;;;4.97;4.45;;;1.70;99.90;;;1.56;100.00;101170.13;5084786;28;20188;-68
2023/10/18 04:27:57;;;;;;;5.00;3.97;;;1.80;99.90;;;1.64;100.00;101168.47;5089193;28;20286;-66
2023/10/18 04:30:29;;;;;;;6.43;5.72;;;1.80;99.90;;;1.65;100.00;101158.59;5090919;28;20268;-68
2023/10/18 04:33:00;;;;;;;9.27;5.88;;;1.90;99.90;;;1.66;100.00;101161.16;5092809;28;20214;-66
2023/10/18 04:35:32;;;;;;;8.23;6.45;;;1.90;99.90;;;1.56;100.00;101157.63;5093434;28;20187;-68
2023/10/18 04:38:04;;;;;;;6.75;4.72;;;1.90;99.90;;;1.39;100.00;101158.31;5101413;28;20245;-71
2023/10/18 04:40:34;;;;;;;5.88;5.03;;;1.80;99.90;;;1.24;100.00;101154.31;5096103;28;20183;-69
2023/10/18 04:43:06;;;;;;;4.95;4.55;;;1.70;99.90;;;1.16;100.00;101155.00;5091333;28;20210;-68
2023/10/18 04:45:35;;;;;;;12.15;4.75;;;1.60;99.90;;;1.25;100.00;101150.69;5095728;28;20752;-68
2023/10/18 04:48:14;;;;;;;8.77;5.78;;;1.60;99.90;;;1.23;100.00;101156.16;5086918;28;20210;-66
2023/10/18 04:50:52;;;;;;;9.20;7.60;;;1.60;99.90;;;1.26;100.00;101145.19;5096220;28;20198;-68
2023/10/18 04:53:23;;;;;;;7.70;6.95;;;1.60;99.90;;;1.37;100.00;101143.41;5088645;28;20218;-68
2023/10/18 04:55:51;;;;;;;15.40;9.75;;;1.70;99.90;;;1.38;100.00;101147.75;5092919;28;20202;-69
2023/10/18 04:58:20;;;;;;;14.60;8.63;;;1.70;99.90;;;1.52;100.00;101152.69;5090082;28;20232;-68
2023/10/18 05:00:57;;;;;;;12.57;10.20;;;1.80;99.90;;;1.58;100.00;101153.00;5097266;28;20211;-67
2023/10/18 05:03:30;;;;;;;17.00;7.63;;;1.80;99.90;;;1.60;100.00;101161.69;5093322;28;20222;-67
2023/10/18 05:05:58;;;;;;;9.00;7.30;;;1.90;99.90;;;1.55;100.00;101163.94;5080892;28;20188;-66
2023/10/18 05:08:30;;;;;;;13.95;7.38;;;1.90;99.90;;;1.55;100.00;101163.13;5097419;28;20286;-66
2023/10/18 05:11:22;;;;;;;11.93;10.35;;;1.90;99.90;;;1.44;100.00;101156.06;5097163;28;20256;-67
2023/10/18 05:13:50;;;;;;;9.60;8.88;;;1.80;99.90;;;1.35;100.00;101158.72;5090386;28;20206;-68
2023/10/18 05:16:21;;;;;;;26.27;9.48;;;1.80;99.90;;;1.24;100.00;101155.16;5095275;28;20183;-68
2023/10/18 05:18:51;;;;;;;8.13;7.40;;;1.70;99.90;;;1.32;100.00;101157.16;5097059;28;20587;-68
2023/10/18 05:21:21;;;;;;;8.88;7.55;;;1.70;99.90;;;1.55;100.00;101152.44;5095263;28;20213;-68
2023/10/18 05:23:52;;;;;;;9.80;8.73;;;1.80;99.90;;;1.53;100.00;101149.06;5080073;28;20214;-69
2023/10/18 05:26:24;;;;;;;9.20;8.27;;;1.80;99.90;;;1.60;100.00;101143.03;5094991;28;20199;-67
2023/10/18 05:29:00;;;;;;;16.80;9.32;;;1.80;99.90;;;1.68;100.00;101151.19;5093971;28;20677;-67
2023/10/18 05:32:05;;;;;;;17.13;11.50;;;1.90;99.90;;;1.69;100.00;101146.72;5096241;28;20187;-68
2023/10/18 05:34:50;;;;;;;10.02;9.02;;;1.90;99.90;;;1.56;100.00;101151.44;5086254;28;20191;-68
2023/10/18 05:37:41;;;;;;;14.30;7.32;;;1.90;99.90;;;1.39;100.00;101165.47;5086680;28;20274;-69
2023/10/18 05:42:59;;;;;;;10.73;9.82;;;1.80;99.90;;;1.27;100.00;101170.88;5090824;28;20862;-68
2023/10/18 05:45:31;;;;;;;23.75;12.38;;;1.70;99.90;;;1.29;100.00;101163.59;5087794;28;20199;-69
2023/10/18 05:48:03;;;;;;;12.30;11.10;;;1.70;99.90;;;1.35;100.00;101161.38;5085157;28;20208;-68
2023/10/18 05:50:34;;;;;;;10.75;8.90;;;1.70;99.90;;;1.40;100.00;101172.47;5094458;28;20270;-68
2023/10/18 05:53:07;;;;;;;16.00;10.57;;;1.80;99.90;;;1.52;100.00;101168.72;5093974;28;20219;-68
2023/10/18 05:55:38;;;;;;;10.43;9.43;;;1.80;99.90;;;1.50;100.00;101170.69;5090204;28;20198;-67
2023/10/18 05:58:06;;;;;;;11.80;8.88;;;1.90;99.90;;;1.43;100.00;101165.03;5087015;28;20196;-68
2023/10/18 06:00:35;;;;;;;11.82;10.77;;;1.80;99.90;;;1.45;100.00;101156.91;5093908;28;20266;-67
2023/10/18 06:03:07;;;;;;;17.60;9.77;;;1.80;99.90;;;1.56;100.00;101157.63;5088982;28;20227;-67
2023/10/18 06:05:38;;;;;;;18.75;10.30;;;1.90;99.90;;;1.66;100.00;101152.31;5089939;28;20180;-67
2023/10/18 06:08:07;;;;;;;10.40;7.80;;;1.90;99.90;;;1.82;100.00;101157.94;5093236;28;20203;-68
2023/10/18 06:10:38;;;;;;;16.35;6.78;;;2.00;99.90;;;1.89;100.00;101153.72;5091015;28;20202;-68
2023/10/18 06:13:10;;;;;;;7.18;6.50;;;2.10;99.90;;;1.96;100.00;101146.00;5088521;28;20207;-67
2023/10/18 06:15:44;;;;;;;19.38;8.63;;;2.20;99.90;;;2.03;100.00;101141.81;5091815;28;20230;-67
2023/10/18 06:18:17;;;;;;;12.10;6.25;;;2.30;99.90;;;2.09;100.00;101160.75;5087618;28;20778;-68
2023/10/18 06:20:52;;;;;;;8.13;5.20;;;2.30;99.90;;;2.16;100.00;101153.03;5086637;28;20222;-68
2023/10/18 06:23:37;;;;;;;10.90;8.60;;;2.30;99.90;;;2.22;100.00;101155.13;5086079;28;20708;-65
2023/10/18 06:28:53;;;;;;;21.52;6.18;;;2.50;99.90;;;2.28;100.00;101151.03;5087132;28;20290;-67
2023/10/18 06:31:24;;;;;;;14.70;7.53;;;2.50;99.90;;;2.34;100.00;101145.13;5092175;28;20217;-66
2023/10/18 06:33:56;;;;;;;11.43;6.32;;;2.50;99.90;;;2.40;100.00;101149.91;5087640;28;20187;-67
2023/10/18 06:36:32;;;;;;;11.27;9.15;;;2.60;99.90;;;2.42;100.00;101145.28;5090642;28;20187;-67
2023/10/18 06:39:00;;;;;;;8.10;6.90;;;2.60;99.90;;;2.58;100.00;101133.00;5085212;28;20183;-68
2023/10/18 06:41:30;;;;;;;14.27;7.78;;;2.70;99.90;;;2.67;100.00;101136.59;5089051;28;20203;-67
2023/10/18 06:43:59;;;;;;;11.40;10.30;;;2.80;99.90;;;2.70;100.00;101136.34;5092418;28;20278;-67
2023/10/18 06:46:28;;;;;;;12.98;9.80;;;2.80;99.90;;;2.81;100.00;101138.00;5087641;28;20772;-66
2023/10/18 06:48:58;;;;;;;11.30;7.68;;;2.90;99.90;;;2.91;100.00;101139.63;5083489;28;20200;-67
2023/10/18 06:51:44;;;;;;;8.20;7.35;;;3.00;99.90;;;3.00;100.00;101133.38;5083338;28;20687;-66
2023/10/18 06:54:23;;;;;;;10.52;8.70;;;3.10;99.90;;;3.21;100.00;101134.97;5088156;28;20613;-67
2023/10/18 06:56:53;;;;;;;7.32;6.63;;;3.30;99.90;;;3.32;100.00;101140.13;5081993;28;20183;-67
2023/10/18 06:59:26;;;;;;;10.65;8.38;;;3.40;99.90;;;3.40;100.00;101138.41;5085607;28;20196;-67
2023/10/18 07:01:58;;;;;;;7.25;6.25;;;3.50;99.90;;;3.62;100.00;101138.97;5084588;28;20298;-66
2023/10/18 07:04:29;;;;;;;9.27;7.85;;;3.60;99.90;;;3.97;100.00;101138.16;5093473;28;20685;-69
2023/10/18 07:06:59;;;;;;;10.50;8.50;;;3.90;99.90;;;4.02;100.00;101144.69;5095016;28;20187;-68
2023/10/18 07:09:31;;;;;;;9.63;6.07;;;4.00;99.90;;;4.19;100.00;101153.75;5090543;28;20612;-69
2023/10/18 07:12:04;;;;;;;10.02;7.97;;;4.20;99.90;;;4.31;100.00;101147.13;5087416;28;20218;-68
2023/10/18 07:14:33;;;;;;;12.63;8.65;;;4.30;99.90;;;4.42;100.00;101146.03;5091576;28;20200;-67
2023/10/18 07:17:03;;;;;;;9.13;7.50;;;4.40;99.90;;;4.46;100.00;101144.72;5091608;28;20190;-68
2023/10/18 07:19:40;;;;;;;6.53;5.93;;;4.50;99.90;;;4.66;100.00;101144.38;5091461;28;20631;-68
2023/10/18 07:22:17;;;;;;;14.77;7.25;;;4.60;99.90;;;4.75;100.00;101135.38;5092164;28;20233;-69
2023/10/18 07:24:54;;;;;;;6.75;5.75;;;4.80;99.90;;;4.85;100.00;101131.75;5096621;28;20537;-68
2023/10/18 07:27:29;;;;;;;5.53;4.63;;;4.90;99.90;;;4.99;100.00;101136.50;5082815;28;20191;-68
2023/10/18 07:30:00;;;;;;;6.45;5.45;;;5.00;99.90;;;5.09;100.00;101142.59;5089166;28;20212;-68
2023/10/18 07:32:31;;;;;;;8.95;7.88;;;5.10;99.90;;;5.29;100.00;101133.28;5086324;28;20215;-67
2023/10/18 07:35:00;;;;;;;10.70;5.72;;;5.30;99.90;;;5.38;100.00;101121.56;5088876;28;20598;-68
2023/10/18 07:37:41;;;;;;;5.38;4.88;;;5.40;99.90;;;5.58;100.00;101119.44;5083627;28;20202;-68
2023/10/18 07:40:11;;;;;;;8.23;4.88;;;5.60;99.90;;;5.79;100.00;101124.38;5093904;28;20210;-69
2023/10/18 07:42:43;;;;;;;6.82;4.78;;;5.80;99.90;;;6.01;100.00;101127.28;5087311;28;20275;-67
2023/10/18 07:45:14;;;;;;;7.15;5.30;;;6.00;99.90;;;6.21;100.00;101119.72;5088889;28;20214;-69
2023/10/18 07:47:43;;;;;;;10.05;6.32;;;6.10;99.90;;;6.30;100.00;101128.63;5087781;28;20232;-67
2023/10/18 07:53:00;;;;;;;15.02;5.82;;;6.40;99.90;;;6.63;100.00;101113.31;5088791;28;20553;-68
2023/10/18 07:55:36;;;;;;;6.75;4.80;;;6.60;99.90;;;6.75;100.00;101111.91;5085046;28;20237;-67
2023/10/18 07:58:17;;;;;;;7.95;7.20;;;6.70;99.90;;;6.86;100.00;101108.88;5085166;28;20183;-68
2023/10/18 08:01:07;;;;;;;5.15;4.57;;;6.80;99.90;;;7.15;100.00;101109.09;5084456;28;20192;-68
2023/10/18 08:03:38;;;;;;;6.00;4.78;;;7.00;99.90;;;7.31;100.00;101108.19;5065759;28;20227;-65
2023/10/18 08:06:15;;;;;;;6.47;3.88;;;7.20;86.70;;;7.50;99.72;101101.53;5086184;28;20242;-68
2023/10/18 08:08:46;;;;;;;4.85;3.80;;;7.40;1.00;;;7.78;97.85;101094.59;5087418;28;20189;-68
2023/10/18 08:11:15;;;;;;;5.10;4.05;;;7.60;1.00;;;7.90;97.54;101093.16;5086738;28;20233;-69
2023/10/18 08:13:46;;;;;;;6.15;4.45;;;7.80;1.00;;;8.10;95.50;101091.66;5087975;28;20631;-69
2023/10/18 08:16:26;;;;;;;5.60;4.03;;;7.90;1.00;;;8.10;95.20;101098.91;5080794;28;20218;-68
2023/10/18 08:18:57;;;;;;;12.18;4.93;;;8.00;1.00;;;8.16;94.45;101099.03;5083082;28;20685;-67
2023/10/18 08:21:37;;;;;;;6.75;3.88;;;8.10;1.00;;;8.35;93.14;101096.88;5088601;28;20722;-66
2023/10/18 08:24:08;;;;;;;6.03;3.58;;;8.20;1.00;;;8.37;93.12;101094.84;5086933;28;20286;-67
2023/10/18 08:26:46;;;;;;;6.20;3.47;;;8.30;1.00;;;8.50;93.04;101103.97;5079344;28;20720;-68
2023/10/18 08:29:16;;;;;;;3.50;2.72;;;8.40;1.00;;;8.61;91.84;101095.44;5088178;28;20211;-68
2023/10/18 08:31:48;;;;;;;2.83;2.47;;;8.50;99.90;;;8.71;91.00;101089.78;5084677;28;20207;-67
2023/10/18 08:34:18;;;;;;;7.60;5.18;;;8.60;99.90;;;8.76;90.77;101090.06;5089671;28;20203;-67
2023/10/18 08:36:48;;;;;;;8.48;4.85;;;8.70;99.90;;;8.83;90.19;101090.97;5084873;28;20200;-66
2023/10/18 08:39:25;;;;;;;5.90;3.47;;;8.70;1.00;;;8.95;88.21;101094.06;5086832;28;20225;-65
2023/10/18 08:42:05;;;;;;;4.35;3.63;;;8.80;99.90;;;8.98;88.31;101088.25;5081319;28;20214;-68
2023/10/18 08:44:35;;;;;;;6.57;4.10;;;8.90;99.90;;;9.18;87.24;101092.06;5082479;28;20548;-68
2023/10/18 08:47:14;;;;;;;6.25;3.25;;;9.10;99.90;;;9.22;87.07;101093.38;5086666;28;20183;-65
2023/10/18 08:49:51;;;;;;;5.80;4.15;;;9.10;99.90;;;9.40;86.23;101090.25;5086291;28;20206;-68
2023/10/18 08:52:23;;;;;;;7.95;4.97;;;9.30;99.90;;;9.63;85.33;101087.41;5089165;28;20280;-67
2023/10/18 08:54:56;;;;;;;6.87;4.47;;;9.50;99.90;;;9.77;82.13;101086.53;5082289;28;20191;-67
2023/10/18 08:57:34;;;;;;;5.85;4.78;;;9.60;99.90;;;9.72;81.79;101088.97;5081485;28;20486;-68
2023/10/18 09:01:03;;;;;;;22.13;3.97;;;9.60;99.90;;;9.81;81.02;101090.50;5083057;28;20585;-68
2023/10/18 09:03:01;;;;;;;3.90;3.00;;;9.70;99.90;;;9.75;81.58;101081.28;5078939;28;20215;-69
2023/10/18 09:05:31;;;;;;;10.15;4.55;;;9.70;99.90;;;9.82;81.07;101092.19;5088520;28;20237;-67
2023/10/18 09:08:03;;;;;;;7.57;3.80;;;9.70;99.90;;;9.88;80.75;101086.00;5081848;28;20262;-68
2023/10/18 09:10:43;;;;;;;4.75;3.53;;;9.70;99.90;;;9.94;80.35;101069.84;5089557;28;20475;-68
2023/10/18 09:16:11;;;;;;;3.65;2.83;;;9.80;99.90;;;10.04;79.85;101074.91;5094080;28;20191;-68
2023/10/18 09:18:40;;;;;;;3.47;3.05;;;9.90;99.90;;;10.07;78.81;101062.91;5085527;28;20184;-68
2023/10/18 09:21:17;;;;;;;3.38;3.08;;;9.90;99.90;;;10.19;78.07;101067.59;5082453;28;20213;-67
2023/10/18 09:23:59;;;;;;;4.73;3.23;;;10.00;99.90;;;10.20;77.67;101054.91;5085787;28;20299;-67
2023/10/18 09:26:35;;;;;;;6.53;2.93;;;10.10;99.90;;;10.17;77.48;101052.59;5083047;28;20448;-67
2023/10/18 09:29:07;;;;;;;4.07;3.60;;;10.10;99.90;;;10.23;77.18;101057.22;5071691;28;20520;-66
2023/10/18 09:31:49;;;;;;;4.83;3.10;;;10.20;99.90;;;10.29;75.92;101057.28;5083326;28;20445;-67
2023/10/18 09:34:19;;;;;;;3.70;3.07;;;10.20;99.90;;;10.33;76.39;101053.16;5083597;28;20788;-68
2023/10/18 09:36:56;;;;;;;3.63;2.77;;;;;;;10.53;76.22;101049.75;5089800;28;20428;-68
2023/10/18 09:39:37;;;;;;;4.83;2.83;;;;;;;10.55;76.04;101045.81;5082762;28;20491;-66
2023/10/18 09:42:12;;;;;;;5.00;3.43;;;;;;;10.62;76.63;101046.69;5087891;28;20443;-68
2023/10/18 09:44:42;;;;;;;3.70;2.83;;;;;;;10.70;74.96;101043.81;5090608;28;20471;-68
2023/10/18 09:47:11;;;;;;;8.80;3.63;;;;;;;10.75;73.82;101041.34;5089489;28;20412;-66
2023/10/18 09:49:41;;;;;;;7.87;2.40;;;;;;;10.65;74.29;101046.28;5090016;28;20464;-68
2023/10/18 09:52:12;;;;;;;4.03;3.00;;;;;;;10.76;73.38;101045.72;5080775;28;21181;-65
2023/10/18 09:54:49;;;;;;;5.87;2.90;;;;;;;10.79;73.08;101048.06;5089159;28;20464;-69
2023/10/18 09:57:24;;;;;;;2.23;1.83;;;;;;;10.79;71.35;101042.66;5089769;28;20435;-68
2023/10/18 09:59:55;;;;;;;2.90;2.20;;;;;;;10.94;69.59;101041.66;5087569;28;20424;-67
2023/10/18 10:02:26;;;;;;;3.03;2.73;;;;;;;10.99;69.58;101031.06;5089746;28;20428;-66
2023/10/18 10:05:03;;;;;;;4.73;2.30;;;;;;;11.04;68.26;101033.97;5085354;28;20479;-67
2023/10/18 10:07:41;;;;;;;3.30;2.47;;;;;;;11.12;67.32;101025.69;5089614;28;20421;-68
2023/10/18 10:10:17;;;;;;;7.50;3.27;;;;;;;11.21;67.63;101029.91;5088048;28;20830;-69
2023/10/18 10:12:57;;;;;;;4.83;3.33;;;;;;;11.24;67.45;101034.91;5089862;28;20446;-67
2023/10/18 10:15:28;;;;;;;5.13;3.80;;;;;;;11.25;67.65;101023.03;5089053;28;20411;-67
2023/10/18 10:18:00;;;;;;;6.30;3.20;;;;;;;11.23;67.44;101027.84;5084966;28;20441;-66
2023/10/18 10:20:32;;;;;;;5.67;2.83;;;;;;;11.15;67.19;101026.13;5082704;28;20794;-66
2023/10/18 10:23:06;;;;;;;2.60;2.27;;;;;;;11.18;65.84;101030.31;5078163;28;20809;-68
2023/10/18 10:25:37;;;;;;;3.27;2.63;;;;;;;11.23;66.00;101017.81;5086768;28;20400;-67
2023/10/18 10:31:56;;;;;;;5.00;2.83;;;;;;;11.64;65.39;101020.44;5088765;28;20458;-68
2023/10/18 10:34:32;;;;;;;7.43;3.60;;;;;;;11.58;62.98;101026.66;5089692;28;20429;-69
2023/10/18 10:37:08;;;;;;;2.33;1.90;;;;;;;11.74;62.93;101023.59;5081768;28;20516;-68
2023/10/18 10:39:44;;;;;;;3.80;2.33;;;;;;;11.70;63.70;101022.31;5084646;28;20412;-67
2023/10/18 10:42:41;;;;;;;7.47;3.63;;;;;;;11.76;64.64;101010.66;5076145;28;20461;-68
2023/10/18 10:45:14;;;;;;;3.33;2.73;;;;;;;11.67;64.54;101005.59;5082750;28;20429;-67
2023/10/18 10:47:50;;;;;;;4.87;2.90;;;;;;;11.65;64.93;100995.00;5080879;28;20426;-67
2023/10/18 10:50:45;;;;;;;3.20;2.27;;;;;;;11.70;64.78;100997.09;5082254;28;20435;-68
2023/10/18 10:53:30;;;;;;;2.43;2.20;;;;;;;11.77;61.32;100987.94;5089177;28;20425;-67
2023/10/18 10:56:16;;;;;;;3.87;2.97;;;;;;;11.79;61.43;100986.91;5085467;28;21021;-66
2023/10/18 10:59:03;;;;;;;2.93;2.30;;;;;;;11.84;61.24;100987.94;5090819;28;20396;-67
2023/10/18 11:02:07;;;;;;;3.60;2.20;;;;;;;11.79;61.29;100984.19;5081556;28;20452;-67
2023/10/18 11:04:58;;;;;;;4.40;2.23;;;;;;;11.83;59.89;100980.84;5078785;28;20411;-69
2023/10/18 11:07:29;;;;;;;4.07;2.97;;;;;;;11.85;60.95;100983.38;5081821;28;20422;-68